sensor_id;sensor_type;location;lat;lon;timestamp;temperature;humidity
78904;DHT22;68291;49.602;8.722;2023-05-07T00:02:31;15.80;99.90
78904;DHT22;68291;49.602;8.722;2023-05-07T00:05:19;15.80;99.90
78904;DHT22;68291;49.602;8.722;2023-05-07T00:08:14;15.80;99.90
78904;DHT22;68291;49.602;8.722;2023-05-07T00:10:55;15.80;99.90
78904;DHT22;68291;49.602;8.722;2023-05-07T00:13:41;15.70;99.90
78904;DHT22;68291;49.602;8.722;2023-05-07T00:16:13;15.70;99.90
78904;DHT22;68291;49.602;8.722;2023-05-07T00:18:45;15.70;99.90
78904;DHT22;68291;49.602;8.722;2023-05-07T00:21:35;15.70;99.90
78904;DHT22;68291;49.602;8.722;2023-05-07T00:24:17;15.60;99.90
78904;DHT22;68291;49.602;8.722;2023-05-07T00:26:48;15.60;99.90
78904;DHT22;68291;49.602;8.722;2023-05-07T00:29:44;15.60;99.90
78904;DHT22;68291;49.602;8.722;2023-05-07T00:32:33;15.50;99.90
78904;DHT22;68291;49.602;8.722;2023-05-07T00:35:30;15.40;99.90
78904;DHT22;68291;49.602;8.722;2023-05-07T00:38:01;15.40;99.90
78904;DHT22;68291;49.602;8.722;2023-05-07T00:40:57;15.40;99.90
78904;DHT22;68291;49.602;8.722;2023-05-07T00:43:47;15.30;99.90
78904;DHT22;68291;49.602;8.722;2023-05-07T00:46:36;15.30;99.90
78904;DHT22;68291;49.602;8.722;2023-05-07T00:49:14;15.20;99.90
78904;DHT22;68291;49.602;8.722;2023-05-07T00:52:01;15.10;99.90
78904;DHT22;68291;49.602;8.722;2023-05-07T00:54:34;15.10;99.90
78904;DHT22;68291;49.602;8.722;2023-05-07T01:00:20;15.10;99.90
78904;DHT22;68291;49.602;8.722;2023-05-07T01:02:58;15.00;99.90
78904;DHT22;68291;49.602;8.722;2023-05-07T01:05:30;15.00;99.90
78904;DHT22;68291;49.602;8.722;2023-05-07T01:08:25;15.00;99.90
78904;DHT22;68291;49.602;8.722;2023-05-07T01:11:06;15.00;99.90
78904;DHT22;68291;49.602;8.722;2023-05-07T01:14:14;15.00;99.90
78904;DHT22;68291;49.602;8.722;2023-05-07T01:16:49;14.90;99.90
78904;DHT22;68291;49.602;8.722;2023-05-07T01:19:37;14.90;99.90
78904;DHT22;68291;49.602;8.722;2023-05-07T01:22:31;14.90;99.90
78904;DHT22;68291;49.602;8.722;2023-05-07T01:25:31;14.90;99.90
78904;DHT22;68291;49.602;8.722;2023-05-07T01:28:26;14.90;99.90
78904;DHT22;68291;49.602;8.722;2023-05-07T01:31:08;14.80;99.90
78904;DHT22;68291;49.602;8.722;2023-05-07T01:33:52;14.70;99.90
78904;DHT22;68291;49.602;8.722;2023-05-07T01:36:47;14.70;99.90
78904;DHT22;68291;49.602;8.722;2023-05-07T01:39:45;14.60;99.90
78904;DHT22;68291;49.602;8.722;2023-05-07T01:42:26;14.60;99.90
78904;DHT22;68291;49.602;8.722;2023-05-07T01:45:09;14.50;99.90
78904;DHT22;68291;49.602;8.722;2023-05-07T01:47:44;14.50;99.90
78904;DHT22;68291;49.602;8.722;2023-05-07T01:50:23;14.50;99.90
78904;DHT22;68291;49.602;8.722;2023-05-07T01:53:20;14.40;99.90
78904;DHT22;68291;49.602;8.722;2023-05-07T01:56:01;14.50;99.90
78904;DHT22;68291;49.602;8.722;2023-05-07T01:58:38;14.50;99.90
78904;DHT22;68291;49.602;8.722;2023-05-07T02:01:26;14.40;99.90
78904;DHT22;68291;49.602;8.722;2023-05-07T02:04:32;14.40;99.90
78904;DHT22;68291;49.602;8.722;2023-05-07T02:07:13;14.40;99.90
78904;DHT22;68291;49.602;8.722;2023-05-07T02:09:45;14.40;99.90
78904;DHT22;68291;49.602;8.722;2023-05-07T02:13:00;14.40;99.90
78904;DHT22;68291;49.602;8.722;2023-05-07T02:15:49;14.40;99.90
78904;DHT22;68291;49.602;8.722;2023-05-07T02:18:23;14.40;99.90
78904;DHT22;68291;49.602;8.722;2023-05-07T02:20:56;14.40;99.90
78904;DHT22;68291;49.602;8.722;2023-05-07T02:23:51;14.40;99.90
78904;DHT22;68291;49.602;8.722;2023-05-07T02:26:47;14.40;99.90
78904;DHT22;68291;49.602;8.722;2023-05-07T02:29:27;14.30;99.90
78904;DHT22;68291;49.602;8.722;2023-05-07T02:32:09;14.30;99.90
78904;DHT22;68291;49.602;8.722;2023-05-07T02:34:52;14.30;99.90
78904;DHT22;68291;49.602;8.722;2023-05-07T02:37:32;14.30;99.90
78904;DHT22;68291;49.602;8.722;2023-05-07T02:40:04;14.30;99.90
78904;DHT22;68291;49.602;8.722;2023-05-07T02:42:56;14.20;99.90
78904;DHT22;68291;49.602;8.722;2023-05-07T02:46:08;14.20;99.90
78904;DHT22;68291;49.602;8.722;2023-05-07T02:48:43;14.20;99.90
78904;DHT22;68291;49.602;8.722;2023-05-07T02:51:27;14.20;99.90
78904;DHT22;68291;49.602;8.722;2023-05-07T02:54:01;14.20;99.90
78904;DHT22;68291;49.602;8.722;2023-05-07T02:56:52;14.20;99.90
78904;DHT22;68291;49.602;8.722;2023-05-07T02:59:50;14.20;99.90
78904;DHT22;68291;49.602;8.722;2023-05-07T03:06:05;14.30;99.90
78904;DHT22;68291;49.602;8.722;2023-05-07T03:08:57;14.30;99.90
78904;DHT22;68291;49.602;8.722;2023-05-07T03:11:38;14.40;99.90
78904;DHT22;68291;49.602;8.722;2023-05-07T03:14:19;14.40;99.90
78904;DHT22;68291;49.602;8.722;2023-05-07T03:16:51;14.40;99.90
78904;DHT22;68291;49.602;8.722;2023-05-07T03:19:47;14.40;99.90
78904;DHT22;68291;49.602;8.722;2023-05-07T03:22:34;14.40;99.90
78904;DHT22;68291;49.602;8.722;2023-05-07T03:25:32;14.40;99.90
78904;DHT22;68291;49.602;8.722;2023-05-07T03:28:22;14.40;99.90
78904;DHT22;68291;49.602;8.722;2023-05-07T03:30:59;14.40;99.90
78904;DHT22;68291;49.602;8.722;2023-05-07T03:33:49;14.40;99.90
78904;DHT22;68291;49.602;8.722;2023-05-07T03:36:53;14.40;99.90
78904;DHT22;68291;49.602;8.722;2023-05-07T03:39:42;14.40;99.90
78904;DHT22;68291;49.602;8.722;2023-05-07T03:42:17;14.30;99.90
78904;DHT22;68291;49.602;8.722;2023-05-07T03:44:50;14.30;99.90
78904;DHT22;68291;49.602;8.722;2023-05-07T03:47:22;14.30;99.90
78904;DHT22;68291;49.602;8.722;2023-05-07T03:50:10;14.20;99.90
78904;DHT22;68291;49.602;8.722;2023-05-07T03:52:49;14.20;99.90
78904;DHT22;68291;49.602;8.722;2023-05-07T03:55:22;14.10;99.90
78904;DHT22;68291;49.602;8.722;2023-05-07T03:58:16;14.10;99.90
78904;DHT22;68291;49.602;8.722;2023-05-07T04:01:08;14.00;99.90
78904;DHT22;68291;49.602;8.722;2023-05-07T04:04:01;13.90;99.90
78904;DHT22;68291;49.602;8.722;2023-05-07T04:06:52;13.90;99.90
78904;DHT22;68291;49.602;8.722;2023-05-07T04:09:52;13.90;99.90
78904;DHT22;68291;49.602;8.722;2023-05-07T04:12:23;13.80;99.90
78904;DHT22;68291;49.602;8.722;2023-05-07T04:15:18;13.80;99.90
78904;DHT22;68291;49.602;8.722;2023-05-07T04:18:02;13.80;99.90
78904;DHT22;68291;49.602;8.722;2023-05-07T04:20:39;13.80;99.90
78904;DHT22;68291;49.602;8.722;2023-05-07T04:23:19;13.80;99.90
78904;DHT22;68291;49.602;8.722;2023-05-07T04:25:52;13.80;99.90
78904;DHT22;68291;49.602;8.722;2023-05-07T04:28:47;13.80;99.90
78904;DHT22;68291;49.602;8.722;2023-05-07T04:31:28;13.80;99.90
78904;DHT22;68291;49.602;8.722;2023-05-07T04:34:22;13.80;99.90
78904;DHT22;68291;49.602;8.722;2023-05-07T04:37:20;13.90;99.90
78904;DHT22;68291;49.602;8.722;2023-05-07T04:39:52;13.90;99.90
78904;DHT22;68291;49.602;8.722;2023-05-07T04:42:57;14.00;99.90
78904;DHT22;68291;49.602;8.722;2023-05-07T04:45:42;14.00;99.90
78904;DHT22;68291;49.602;8.722;2023-05-07T04:48:33;14.00;99.90
78904;DHT22;68291;49.602;8.722;2023-05-07T04:51:24;14.10;99.90
78904;DHT22;68291;49.602;8.722;2023-05-07T04:54:13;14.20;99.90
78904;DHT22;68291;49.602;8.722;2023-05-07T04:56:58;14.30;99.90
78904;DHT22;68291;49.602;8.722;2023-05-07T04:59:38;14.30;99.90
78904;DHT22;68291;49.602;8.722;2023-05-07T05:02:35;14.40;99.90
78904;DHT22;68291;49.602;8.722;2023-05-07T05:05:23;14.50;99.90
78904;DHT22;68291;49.602;8.722;2023-05-07T05:07:59;14.60;99.90
78904;DHT22;68291;49.602;8.722;2023-05-07T05:10:30;14.70;99.90
78904;DHT22;68291;49.602;8.722;2023-05-07T05:13:06;14.70;99.90
78904;DHT22;68291;49.602;8.722;2023-05-07T05:16:18;14.80;99.90
78904;DHT22;68291;49.602;8.722;2023-05-07T05:19:06;14.90;99.90
78904;DHT22;68291;49.602;8.722;2023-05-07T05:21:46;15.00;99.90
78904;DHT22;68291;49.602;8.722;2023-05-07T05:24:25;15.10;99.90
78904;DHT22;68291;49.602;8.722;2023-05-07T05:27:06;15.20;99.90
78904;DHT22;68291;49.602;8.722;2023-05-07T05:30:01;15.20;99.90
78904;DHT22;68291;49.602;8.722;2023-05-07T05:32:58;15.40;99.90
78904;DHT22;68291;49.602;8.722;2023-05-07T05:35:41;15.40;99.90
78904;DHT22;68291;49.602;8.722;2023-05-07T05:38:13;15.50;99.90
78904;DHT22;68291;49.602;8.722;2023-05-07T05:41:02;15.60;99.90
78904;DHT22;68291;49.602;8.722;2023-05-07T05:43:53;15.80;99.90
78904;DHT22;68291;49.602;8.722;2023-05-07T05:46:49;15.90;99.90
78904;DHT22;68291;49.602;8.722;2023-05-07T05:49:36;16.00;99.90
78904;DHT22;68291;49.602;8.722;2023-05-07T05:52:18;16.10;99.90
78904;DHT22;68291;49.602;8.722;2023-05-07T05:55:01;16.20;99.90
78904;DHT22;68291;49.602;8.722;2023-05-07T05:57:36;16.30;99.90
78904;DHT22;68291;49.602;8.722;2023-05-07T06:00:31;16.40;99.90
78904;DHT22;68291;49.602;8.722;2023-05-07T06:03:08;16.50;99.90
78904;DHT22;68291;49.602;8.722;2023-05-07T06:06:01;16.60;99.90
78904;DHT22;68291;49.602;8.722;2023-05-07T06:08:45;16.70;99.90
78904;DHT22;68291;49.602;8.722;2023-05-07T06:11:32;16.90;99.90
78904;DHT22;68291;49.602;8.722;2023-05-07T06:14:14;17.00;99.90
78904;DHT22;68291;49.602;8.722;2023-05-07T06:17:02;17.10;99.90
78904;DHT22;68291;49.602;8.722;2023-05-07T06:19:47;17.20;99.90
78904;DHT22;68291;49.602;8.722;2023-05-07T06:22:42;17.30;99.90
78904;DHT22;68291;49.602;8.722;2023-05-07T06:25:37;17.40;99.90
78904;DHT22;68291;49.602;8.722;2023-05-07T06:28:08;17.50;99.90
78904;DHT22;68291;49.602;8.722;2023-05-07T06:30:42;17.60;99.90
78904;DHT22;68291;49.602;8.722;2023-05-07T06:33:38;17.70;99.90
78904;DHT22;68291;49.602;8.722;2023-05-07T06:36:19;17.90;99.90
78904;DHT22;68291;49.602;8.722;2023-05-07T06:39:15;18.00;99.90
78904;DHT22;68291;49.602;8.722;2023-05-07T06:42:13;18.20;99.90
78904;DHT22;68291;49.602;8.722;2023-05-07T06:45:07;18.30;99.90
78904;DHT22;68291;49.602;8.722;2023-05-07T06:47:49;18.50;99.90
78904;DHT22;68291;49.602;8.722;2023-05-07T06:50:40;18.60;99.90
78904;DHT22;68291;49.602;8.722;2023-05-07T06:53:30;18.70;99.90
78904;DHT22;68291;49.602;8.722;2023-05-07T06:56:32;18.80;99.90
78904;DHT22;68291;49.602;8.722;2023-05-07T06:59:09;18.90;99.90
78904;DHT22;68291;49.602;8.722;2023-05-07T07:01:56;19.00;99.90
78904;DHT22;68291;49.602;8.722;2023-05-07T07:04:41;19.20;99.90
78904;DHT22;68291;49.602;8.722;2023-05-07T07:07:23;19.30;99.90
78904;DHT22;68291;49.602;8.722;2023-05-07T07:10:02;19.40;99.90
78904;DHT22;68291;49.602;8.722;2023-05-07T07:12:53;19.60;99.90
78904;DHT22;68291;49.602;8.722;2023-05-07T07:15:47;19.70;99.90
78904;DHT22;68291;49.602;8.722;2023-05-07T07:18:19;19.90;99.90
78904;DHT22;68291;49.602;8.722;2023-05-07T07:21:04;20.00;99.90
78904;DHT22;68291;49.602;8.722;2023-05-07T07:23:35;20.20;99.90
78904;DHT22;68291;49.602;8.722;2023-05-07T07:26:31;20.30;99.90
78904;DHT22;68291;49.602;8.722;2023-05-07T07:29:27;20.50;99.90
78904;DHT22;68291;49.602;8.722;2023-05-07T07:32:00;20.60;99.90
78904;DHT22;68291;49.602;8.722;2023-05-07T07:34:38;20.70;99.90
78904;DHT22;68291;49.602;8.722;2023-05-07T07:37:23;20.80;99.90
78904;DHT22;68291;49.602;8.722;2023-05-07T07:40:12;20.90;99.90
78904;DHT22;68291;49.602;8.722;2023-05-07T07:42:50;21.10;99.90
78904;DHT22;68291;49.602;8.722;2023-05-07T07:45:45;21.20;99.90
78904;DHT22;68291;49.602;8.722;2023-05-07T07:48:20;21.30;99.90
78904;DHT22;68291;49.602;8.722;2023-05-07T07:51:01;21.40;99.90
78904;DHT22;68291;49.602;8.722;2023-05-07T07:53:57;21.50;99.90
78904;DHT22;68291;49.602;8.722;2023-05-07T07:56:43;21.70;99.90
78904;DHT22;68291;49.602;8.722;2023-05-07T07:59:16;21.70;99.90
78904;DHT22;68291;49.602;8.722;2023-05-07T08:02:15;21.80;99.90
78904;DHT22;68291;49.602;8.722;2023-05-07T08:05:05;21.90;99.90
78904;DHT22;68291;49.602;8.722;2023-05-07T08:07:57;22.00;99.90
78904;DHT22;68291;49.602;8.722;2023-05-07T08:11:00;22.10;99.90
78904;DHT22;68291;49.602;8.722;2023-05-07T08:13:54;22.20;99.90
78904;DHT22;68291;49.602;8.722;2023-05-07T08:16:35;22.30;99.90
78904;DHT22;68291;49.602;8.722;2023-05-07T08:19:10;22.40;99.90
78904;DHT22;68291;49.602;8.722;2023-05-07T08:21:52;22.40;99.90
78904;DHT22;68291;49.602;8.722;2023-05-07T08:24:24;22.40;99.90
78904;DHT22;68291;49.602;8.722;2023-05-07T08:27:07;22.40;99.90
78904;DHT22;68291;49.602;8.722;2023-05-07T08:30:02;22.40;99.90
78904;DHT22;68291;49.602;8.722;2023-05-07T08:32:49;22.40;99.90
78904;DHT22;68291;49.602;8.722;2023-05-07T08:39:08;22.40;99.90
78904;DHT22;68291;49.602;8.722;2023-05-07T08:41:55;22.40;99.90
78904;DHT22;68291;49.602;8.722;2023-05-07T08:44:33;22.50;99.90
78904;DHT22;68291;49.602;8.722;2023-05-07T08:47:18;22.50;99.90
78904;DHT22;68291;49.602;8.722;2023-05-07T08:50:02;22.50;99.90
78904;DHT22;68291;49.602;8.722;2023-05-07T08:52:54;22.50;99.90
78904;DHT22;68291;49.602;8.722;2023-05-07T08:55:33;22.50;99.90
78904;DHT22;68291;49.602;8.722;2023-05-07T08:58:28;22.60;99.90
78904;DHT22;68291;49.602;8.722;2023-05-07T09:01:23;22.60;99.90
78904;DHT22;68291;49.602;8.722;2023-05-07T09:04:06;22.60;99.90
78904;DHT22;68291;49.602;8.722;2023-05-07T09:06:54;22.80;99.90
78904;DHT22;68291;49.602;8.722;2023-05-07T09:09:57;22.90;99.90
78904;DHT22;68291;49.602;8.722;2023-05-07T09:12:51;23.00;99.90
78904;DHT22;68291;49.602;8.722;2023-05-07T09:15:38;23.00;99.90
78904;DHT22;68291;49.602;8.722;2023-05-07T09:18:30;23.10;99.90
78904;DHT22;68291;49.602;8.722;2023-05-07T09:21:15;23.20;99.90
78904;DHT22;68291;49.602;8.722;2023-05-07T09:23:52;23.30;99.90
78904;DHT22;68291;49.602;8.722;2023-05-07T09:26:42;23.40;99.90
78904;DHT22;68291;49.602;8.722;2023-05-07T09:29:28;23.60;99.90
78904;DHT22;68291;49.602;8.722;2023-05-07T09:32:08;23.70;99.90
78904;DHT22;68291;49.602;8.722;2023-05-07T09:34:40;23.70;99.90
78904;DHT22;68291;49.602;8.722;2023-05-07T09:37:36;23.80;99.90
78904;DHT22;68291;49.602;8.722;2023-05-07T09:40:31;23.90;99.90
78904;DHT22;68291;49.602;8.722;2023-05-07T09:43:19;23.90;99.90
78904;DHT22;68291;49.602;8.722;2023-05-07T09:46:12;23.90;99.90
78904;DHT22;68291;49.602;8.722;2023-05-07T09:48:58;24.00;99.90
78904;DHT22;68291;49.602;8.722;2023-05-07T09:52:00;24.10;99.90
78904;DHT22;68291;49.602;8.722;2023-05-07T09:54:40;24.20;99.90
78904;DHT22;68291;49.602;8.722;2023-05-07T09:57:17;24.30;99.90
78904;DHT22;68291;49.602;8.722;2023-05-07T10:00:12;24.40;99.90
78904;DHT22;68291;49.602;8.722;2023-05-07T10:02:52;24.60;99.90
78904;DHT22;68291;49.602;8.722;2023-05-07T10:05:45;24.70;99.90
78904;DHT22;68291;49.602;8.722;2023-05-07T10:08:22;24.80;99.90
78904;DHT22;68291;49.602;8.722;2023-05-07T10:11:00;24.90;99.90
78904;DHT22;68291;49.602;8.722;2023-05-07T10:13:55;25.10;99.90
78904;DHT22;68291;49.602;8.722;2023-05-07T10:17:17;25.20;99.90
78904;DHT22;68291;49.602;8.722;2023-05-07T10:20:16;25.20;99.90
78904;DHT22;68291;49.602;8.722;2023-05-07T10:22:56;25.30;99.90
78904;DHT22;68291;49.602;8.722;2023-05-07T10:25:36;25.30;99.90
78904;DHT22;68291;49.602;8.722;2023-05-07T10:28:16;25.30;99.90
78904;DHT22;68291;49.602;8.722;2023-05-07T10:31:21;25.40;99.90
78904;DHT22;68291;49.602;8.722;2023-05-07T10:34:18;25.40;99.90
78904;DHT22;68291;49.602;8.722;2023-05-07T10:37:16;25.30;99.90
78904;DHT22;68291;49.602;8.722;2023-05-07T10:39:49;25.60;99.90
78904;DHT22;68291;49.602;8.722;2023-05-07T10:42:23;25.70;99.90
78904;DHT22;68291;49.602;8.722;2023-05-07T10:45:12;25.70;99.90
78904;DHT22;68291;49.602;8.722;2023-05-07T10:48:08;25.80;99.90
78904;DHT22;68291;49.602;8.722;2023-05-07T10:54:22;25.90;99.90
78904;DHT22;68291;49.602;8.722;2023-05-07T10:57:34;25.90;99.90
78904;DHT22;68291;49.602;8.722;2023-05-07T11:00:42;26.00;99.90
78904;DHT22;68291;49.602;8.722;2023-05-07T11:03:30;26.20;99.90
78904;DHT22;68291;49.602;8.722;2023-05-07T11:06:23;26.30;99.90
78904;DHT22;68291;49.602;8.722;2023-05-07T11:09:22;26.40;99.90
78904;DHT22;68291;49.602;8.722;2023-05-07T11:12:16;26.40;99.90
78904;DHT22;68291;49.602;8.722;2023-05-07T11:14:58;26.40;99.90
78904;DHT22;68291;49.602;8.722;2023-05-07T11:17:54;26.40;99.90
78904;DHT22;68291;49.602;8.722;2023-05-07T11:20:54;26.40;99.90
78904;DHT22;68291;49.602;8.722;2023-05-07T11:24:03;26.40;99.90
78904;DHT22;68291;49.602;8.722;2023-05-07T11:26:48;26.40;99.90
78904;DHT22;68291;49.602;8.722;2023-05-07T11:29:31;26.40;99.90
78904;DHT22;68291;49.602;8.722;2023-05-07T11:32:12;26.40;99.90
78904;DHT22;68291;49.602;8.722;2023-05-07T11:35:03;26.50;99.90
78904;DHT22;68291;49.602;8.722;2023-05-07T11:37:48;26.60;99.90
78904;DHT22;68291;49.602;8.722;2023-05-07T11:40:49;26.70;99.90
78904;DHT22;68291;49.602;8.722;2023-05-07T11:44:00;26.90;99.90
78904;DHT22;68291;49.602;8.722;2023-05-07T11:46:43;27.00;99.90
78904;DHT22;68291;49.602;8.722;2023-05-07T11:49:37;27.20;99.90
78904;DHT22;68291;49.602;8.722;2023-05-07T11:52:26;27.30;99.90
78904;DHT22;68291;49.602;8.722;2023-05-07T11:55:12;27.40;99.90
78904;DHT22;68291;49.602;8.722;2023-05-07T11:57:56;27.50;99.90
78904;DHT22;68291;49.602;8.722;2023-05-07T12:00:31;27.50;99.90
78904;DHT22;68291;49.602;8.722;2023-05-07T12:03:22;27.60;99.90
78904;DHT22;68291;49.602;8.722;2023-05-07T12:06:00;27.70;99.90
78904;DHT22;68291;49.602;8.722;2023-05-07T12:08:35;27.80;99.90
78904;DHT22;68291;49.602;8.722;2023-05-07T12:11:27;28.00;99.90
78904;DHT22;68291;49.602;8.722;2023-05-07T12:14:20;28.20;99.90
78904;DHT22;68291;49.602;8.722;2023-05-07T12:17:12;28.40;99.90
78904;DHT22;68291;49.602;8.722;2023-05-07T12:19:59;28.50;99.90
78904;DHT22;68291;49.602;8.722;2023-05-07T12:22:43;28.60;99.90
78904;DHT22;68291;49.602;8.722;2023-05-07T12:25:26;28.70;99.90
78904;DHT22;68291;49.602;8.722;2023-05-07T12:28:18;28.70;99.90
78904;DHT22;68291;49.602;8.722;2023-05-07T12:31:06;28.90;99.90
78904;DHT22;68291;49.602;8.722;2023-05-07T12:34:00;29.00;99.90
78904;DHT22;68291;49.602;8.722;2023-05-07T12:36:44;29.10;99.90
78904;DHT22;68291;49.602;8.722;2023-05-07T12:39:19;29.20;99.90
78904;DHT22;68291;49.602;8.722;2023-05-07T12:41:56;29.20;99.90
78904;DHT22;68291;49.602;8.722;2023-05-07T12:44:46;29.20;99.90
78904;DHT22;68291;49.602;8.722;2023-05-07T12:47:49;29.10;99.90
78904;DHT22;68291;49.602;8.722;2023-05-07T12:50:35;29.10;99.90
78904;DHT22;68291;49.602;8.722;2023-05-07T12:53:32;29.20;99.90
78904;DHT22;68291;49.602;8.722;2023-05-07T12:56:16;29.40;99.90
78904;DHT22;68291;49.602;8.722;2023-05-07T12:58:57;29.60;99.90
78904;DHT22;68291;49.602;8.722;2023-05-07T13:01:38;29.80;99.90
78904;DHT22;68291;49.602;8.722;2023-05-07T13:04:14;30.10;99.90
78904;DHT22;68291;49.602;8.722;2023-05-07T13:07:01;30.30;99.90
78904;DHT22;68291;49.602;8.722;2023-05-07T13:09:51;30.60;99.90
78904;DHT22;68291;49.602;8.722;2023-05-07T13:12:43;30.90;99.90
78904;DHT22;68291;49.602;8.722;2023-05-07T13:15:16;31.10;99.90
78904;DHT22;68291;49.602;8.722;2023-05-07T13:18:03;31.20;99.20
78904;DHT22;68291;49.602;8.722;2023-05-07T13:21:08;31.10;98.70
78904;DHT22;68291;49.602;8.722;2023-05-07T13:23:59;31.00;97.30
78904;DHT22;68291;49.602;8.722;2023-05-07T13:26:41;30.70;98.50
78904;DHT22;68291;49.602;8.722;2023-05-07T13:29:28;30.60;98.70
78904;DHT22;68291;49.602;8.722;2023-05-07T13:32:19;30.50;99.00
78904;DHT22;68291;49.602;8.722;2023-05-07T13:34:59;30.30;98.50
78904;DHT22;68291;49.602;8.722;2023-05-07T13:37:43;30.20;98.60
78904;DHT22;68291;49.602;8.722;2023-05-07T13:40:29;30.10;98.10
78904;DHT22;68291;49.602;8.722;2023-05-07T13:43:24;30.00;98.30
78904;DHT22;68291;49.602;8.722;2023-05-07T13:46:07;29.80;97.80
78904;DHT22;68291;49.602;8.722;2023-05-07T13:48:47;29.60;98.00
78904;DHT22;68291;49.602;8.722;2023-05-07T13:51:43;29.40;97.80
78904;DHT22;68291;49.602;8.722;2023-05-07T13:54:24;29.20;98.30
78904;DHT22;68291;49.602;8.722;2023-05-07T13:57:10;29.00;97.70
78904;DHT22;68291;49.602;8.722;2023-05-07T13:59:56;28.80;97.80
78904;DHT22;68291;49.602;8.722;2023-05-07T14:02:42;28.60;98.10
78904;DHT22;68291;49.602;8.722;2023-05-07T14:05:14;28.50;98.70
78904;DHT22;68291;49.602;8.722;2023-05-07T14:08:08;28.30;99.10
78904;DHT22;68291;49.602;8.722;2023-05-07T14:11:05;28.10;99.90
78904;DHT22;68291;49.602;8.722;2023-05-07T14:13:40;27.90;98.80
78904;DHT22;68291;49.602;8.722;2023-05-07T14:16:25;27.70;99.80
78904;DHT22;68291;49.602;8.722;2023-05-07T14:18:57;27.50;99.90
78904;DHT22;68291;49.602;8.722;2023-05-07T14:21:46;27.30;99.40
78904;DHT22;68291;49.602;8.722;2023-05-07T14:24:35;27.10;99.90
78904;DHT22;68291;49.602;8.722;2023-05-07T14:27:58;26.90;99.90
78904;DHT22;68291;49.602;8.722;2023-05-07T14:30:51;26.60;99.90
78904;DHT22;68291;49.602;8.722;2023-05-07T14:33:41;26.40;99.90
78904;DHT22;68291;49.602;8.722;2023-05-07T14:36:34;26.20;99.90
78904;DHT22;68291;49.602;8.722;2023-05-07T14:39:24;26.00;99.90
78904;DHT22;68291;49.602;8.722;2023-05-07T14:42:23;25.90;99.90
78904;DHT22;68291;49.602;8.722;2023-05-07T14:45:22;25.70;99.90
78904;DHT22;68291;49.602;8.722;2023-05-07T14:48:12;25.50;99.90
78904;DHT22;68291;49.602;8.722;2023-05-07T14:51:10;25.40;99.90
78904;DHT22;68291;49.602;8.722;2023-05-07T14:54:00;25.20;99.90
78904;DHT22;68291;49.602;8.722;2023-05-07T14:56:52;25.00;99.90
78904;DHT22;68291;49.602;8.722;2023-05-07T14:59:51;24.70;99.90
78904;DHT22;68291;49.602;8.722;2023-05-07T15:03:32;24.30;99.90
78904;DHT22;68291;49.602;8.722;2023-05-07T15:06:33;23.80;99.90
78904;DHT22;68291;49.602;8.722;2023-05-07T15:09:31;23.30;99.90
78904;DHT22;68291;49.602;8.722;2023-05-07T15:12:55;22.70;99.90
78904;DHT22;68291;49.602;8.722;2023-05-07T15:16:30;22.00;99.90
78904;DHT22;68291;49.602;8.722;2023-05-07T15:19:52;21.20;99.90
78904;DHT22;68291;49.602;8.722;2023-05-07T15:22:45;20.50;99.90
78904;DHT22;68291;49.602;8.722;2023-05-07T15:25:37;19.90;99.90
78904;DHT22;68291;49.602;8.722;2023-05-07T15:28:30;19.50;99.90
78904;DHT22;68291;49.602;8.722;2023-05-07T15:31:26;19.00;99.90
78904;DHT22;68291;49.602;8.722;2023-05-07T15:34:16;18.70;99.90
78904;DHT22;68291;49.602;8.722;2023-05-07T15:37:28;18.30;99.90
78904;DHT22;68291;49.602;8.722;2023-05-07T15:40:20;18.10;99.90
78904;DHT22;68291;49.602;8.722;2023-05-07T15:43:15;17.90;99.90
78904;DHT22;68291;49.602;8.722;2023-05-07T15:46:06;17.70;99.90
78904;DHT22;68291;49.602;8.722;2023-05-07T15:49:09;17.60;99.90
78904;DHT22;68291;49.602;8.722;2023-05-07T15:52:03;17.60;99.90
78904;DHT22;68291;49.602;8.722;2023-05-07T15:55:10;17.50;99.90
78904;DHT22;68291;49.602;8.722;2023-05-07T15:58:07;17.50;99.90
78904;DHT22;68291;49.602;8.722;2023-05-07T16:00:57;17.40;99.90
78904;DHT22;68291;49.602;8.722;2023-05-07T16:03:53;17.40;99.90
78904;DHT22;68291;49.602;8.722;2023-05-07T16:06:55;17.50;99.90
78904;DHT22;68291;49.602;8.722;2023-05-07T16:09:50;17.50;99.90
78904;DHT22;68291;49.602;8.722;2023-05-07T16:12:45;17.50;99.90
78904;DHT22;68291;49.602;8.722;2023-05-07T16:15:35;17.50;99.90
78904;DHT22;68291;49.602;8.722;2023-05-07T16:18:26;17.50;99.90
78904;DHT22;68291;49.602;8.722;2023-05-07T16:21:15;17.60;99.90
78904;DHT22;68291;49.602;8.722;2023-05-07T16:24:06;17.60;99.90
78904;DHT22;68291;49.602;8.722;2023-05-07T16:26:56;17.60;99.90
78904;DHT22;68291;49.602;8.722;2023-05-07T16:29:59;17.60;99.90
78904;DHT22;68291;49.602;8.722;2023-05-07T16:32:51;17.60;99.90
78904;DHT22;68291;49.602;8.722;2023-05-07T16:35:41;17.70;99.90
78904;DHT22;68291;49.602;8.722;2023-05-07T16:38:34;17.70;99.90
78904;DHT22;68291;49.602;8.722;2023-05-07T16:41:25;17.70;99.90
78904;DHT22;68291;49.602;8.722;2023-05-07T16:44:22;17.70;99.90
78904;DHT22;68291;49.602;8.722;2023-05-07T16:47:18;17.80;99.90
78904;DHT22;68291;49.602;8.722;2023-05-07T16:50:21;17.80;99.90
78904;DHT22;68291;49.602;8.722;2023-05-07T16:53:15;17.80;99.90
78904;DHT22;68291;49.602;8.722;2023-05-07T16:56:05;17.80;99.90
78904;DHT22;68291;49.602;8.722;2023-05-07T16:59:19;17.80;99.90
78904;DHT22;68291;49.602;8.722;2023-05-07T17:02:09;17.80;99.90
78904;DHT22;68291;49.602;8.722;2023-05-07T17:05:15;17.80;99.90
78904;DHT22;68291;49.602;8.722;2023-05-07T17:08:05;17.70;99.90
78904;DHT22;68291;49.602;8.722;2023-05-07T17:11:14;17.80;99.90
78904;DHT22;68291;49.602;8.722;2023-05-07T17:14:14;17.80;99.90
78904;DHT22;68291;49.602;8.722;2023-05-07T17:17:11;17.80;99.90
78904;DHT22;68291;49.602;8.722;2023-05-07T17:20:29;17.70;99.90
78904;DHT22;68291;49.602;8.722;2023-05-07T17:23:27;17.80;99.90
78904;DHT22;68291;49.602;8.722;2023-05-07T17:26:24;17.80;99.90
78904;DHT22;68291;49.602;8.722;2023-05-07T17:29:18;17.70;99.90
78904;DHT22;68291;49.602;8.722;2023-05-07T17:32:16;17.70;99.90
78904;DHT22;68291;49.602;8.722;2023-05-07T17:35:07;17.70;99.90
78904;DHT22;68291;49.602;8.722;2023-05-07T17:38:15;17.70;99.90
78904;DHT22;68291;49.602;8.722;2023-05-07T17:41:08;17.60;99.90
78904;DHT22;68291;49.602;8.722;2023-05-07T17:44:23;17.60;99.90
78904;DHT22;68291;49.602;8.722;2023-05-07T17:47:17;17.60;99.90
78904;DHT22;68291;49.602;8.722;2023-05-07T17:50:08;17.60;99.90
78904;DHT22;68291;49.602;8.722;2023-05-07T17:53:15;17.60;99.90
78904;DHT22;68291;49.602;8.722;2023-05-07T17:56:05;17.60;99.90
78904;DHT22;68291;49.602;8.722;2023-05-07T17:59:06;17.60;99.90
78904;DHT22;68291;49.602;8.722;2023-05-07T18:01:56;17.60;99.90